createdAt,value
2023-05-05T00:03:20.334Z,5.60
2023-05-05T00:08:23.259Z,4.32
2023-05-05T00:13:27.289Z,5.32
2023-05-05T00:18:30.184Z,5.55
2023-05-05T00:23:32.836Z,5.55
2023-05-05T00:28:36.823Z,5.80
2023-05-05T00:33:39.495Z,4.85
2023-05-05T00:38:42.930Z,6.35
2023-05-05T00:43:47.167Z,6.55
2023-05-05T00:48:49.920Z,4.53
2023-05-05T00:53:52.709Z,4.72
2023-05-05T00:58:58.356Z,6.75
2023-05-05T01:04:01.398Z,4.80
2023-05-05T01:09:09.862Z,5.00
2023-05-05T01:14:17.014Z,6.10
2023-05-05T01:19:33.641Z,3.92
2023-05-05T01:24:59.350Z,4.63
2023-05-05T01:30:09.883Z,4.78
2023-05-05T01:35:19.646Z,6.10
2023-05-05T01:40:26.686Z,6.47
2023-05-05T01:45:30.608Z,6.05
2023-05-05T01:50:35.011Z,4.72
2023-05-05T01:55:38.203Z,6.20
2023-05-05T02:00:41.562Z,4.22
2023-05-05T02:05:45.800Z,4.72
2023-05-05T02:10:49.047Z,5.72
2023-05-05T02:15:53.020Z,4.13
2023-05-05T02:20:57.198Z,5.07
2023-05-05T02:26:04.641Z,4.60
2023-05-05T02:31:08.515Z,4.30
2023-05-05T02:36:16.563Z,5.57
2023-05-05T02:41:26.784Z,5.43
2023-05-05T02:46:30.399Z,4.60
2023-05-05T02:51:34.527Z,4.80
2023-05-05T02:56:44.085Z,6.32
2023-05-05T03:01:57.076Z,4.30
2023-05-05T03:07:10.885Z,4.75
2023-05-05T03:12:17.955Z,4.85
2023-05-05T03:17:30.791Z,4.45
2023-05-05T03:22:37.950Z,5.57
2023-05-05T03:27:43.593Z,4.65
2023-05-05T03:32:49.812Z,4.53
2023-05-05T03:37:55.412Z,4.82
2023-05-05T03:42:58.748Z,4.78
2023-05-05T03:48:02.067Z,4.22
2023-05-05T03:53:07.054Z,5.63
2023-05-05T03:58:09.908Z,5.63
2023-05-05T04:03:12.750Z,4.43
2023-05-05T04:08:17.030Z,4.90
2023-05-05T04:13:19.846Z,6.15
2023-05-05T04:18:23.283Z,5.43
2023-05-05T04:23:27.933Z,5.72
2023-05-05T04:28:30.682Z,5.32
2023-05-05T04:33:33.378Z,5.05
2023-05-05T04:38:37.821Z,6.55
2023-05-05T04:43:41.246Z,5.85
2023-05-05T04:48:43.972Z,6.43
2023-05-05T04:53:48.315Z,6.18
2023-05-05T04:58:51.097Z,5.82
2023-05-05T05:03:54.148Z,6.70
2023-05-05T05:08:58.291Z,6.40
2023-05-05T05:14:01.029Z,5.65
2023-05-05T05:19:03.758Z,6.18
2023-05-05T05:24:11.026Z,7.45
2023-05-05T05:29:14.233Z,6.53
2023-05-05T05:34:17.122Z,6.57
2023-05-05T05:39:22.302Z,5.78
2023-05-05T05:44:25.915Z,6.22
2023-05-05T05:49:28.712Z,6.13
2023-05-05T05:54:34.408Z,6.03
2023-05-05T05:59:39.266Z,5.68
2023-05-05T06:04:42.556Z,7.80
2023-05-05T06:09:47.603Z,9.35
2023-05-05T06:14:52.206Z,7.18
2023-05-05T06:19:54.946Z,9.63
2023-05-05T06:24:59.259Z,8.00
2023-05-05T06:30:02.040Z,7.63
2023-05-05T06:35:05.125Z,6.38
2023-05-05T06:40:11.313Z,7.20
2023-05-05T06:45:14.212Z,6.95
2023-05-05T06:50:16.895Z,7.40
2023-05-05T06:55:21.275Z,6.65
2023-05-05T07:00:24.496Z,6.90
2023-05-05T07:05:27.129Z,6.82
2023-05-05T07:10:31.826Z,7.15
2023-05-05T07:15:34.641Z,7.20
2023-05-05T07:20:37.282Z,6.43
2023-05-05T07:25:41.347Z,7.15
2023-05-05T07:30:43.982Z,7.45
2023-05-05T07:35:46.848Z,5.90
2023-05-05T07:40:50.803Z,6.35
2023-05-05T07:45:53.549Z,6.18
2023-05-05T07:50:56.379Z,5.40
2023-05-05T07:56:00.398Z,5.95
2023-05-05T08:01:05.762Z,5.90
2023-05-05T08:06:09.850Z,5.85
2023-05-05T08:11:13.872Z,6.05
2023-05-05T08:16:16.602Z,5.53
2023-05-05T08:21:19.247Z,7.50
2023-05-05T08:26:23.464Z,6.75
2023-05-05T08:31:26.149Z,5.97
2023-05-05T08:36:29.007Z,4.95
2023-05-05T08:41:34.062Z,6.07
2023-05-05T08:46:37.545Z,5.93
2023-05-05T08:51:45.383Z,7.10
2023-05-05T08:56:51.303Z,6.18
2023-05-05T09:02:23.872Z,5.80
2023-05-05T09:07:26.568Z,6.40
2023-05-05T09:12:32.066Z,5.65
2023-05-05T09:17:34.998Z,5.57
2023-05-05T09:22:38.568Z,4.70
2023-05-05T09:27:45.699Z,4.95
2023-05-05T09:32:51.527Z,5.28
2023-05-05T09:37:54.174Z,5.05
2023-05-05T09:43:03.115Z,5.15
2023-05-05T09:48:06.280Z,4.32
2023-05-05T09:53:09.127Z,5.25
2023-05-05T09:58:20.397Z,5.03
2023-05-05T10:03:23.261Z,5.18
2023-05-05T10:08:28.049Z,7.15
2023-05-05T10:13:35.981Z,6.40
2023-05-05T10:18:41.356Z,5.43
2023-05-05T10:23:50.278Z,4.90
2023-05-05T10:28:56.820Z,4.90
2023-05-05T10:34:03.540Z,6.75
2023-05-05T10:39:09.246Z,4.38
2023-05-05T10:44:13.351Z,5.07
2023-05-05T10:49:25.684Z,4.38
2023-05-05T10:54:33.958Z,5.18
2023-05-05T10:59:43.435Z,4.70
2023-05-05T11:05:04.681Z,4.65
2023-05-05T11:10:08.722Z,4.20
2023-05-05T11:15:41.428Z,4.40
2023-05-05T11:21:08.960Z,4.50
2023-05-05T11:26:12.017Z,4.82
2023-05-05T11:31:20.011Z,4.25
2023-05-05T11:36:39.279Z,4.68
2023-05-05T11:41:52.928Z,4.82
2023-05-05T11:47:32.134Z,6.47
2023-05-05T11:52:34.874Z,5.40
2023-05-05T11:57:37.781Z,6.90
2023-05-05T12:02:42.214Z,15.20
2023-05-05T12:07:44.948Z,26.30
2023-05-05T12:12:48.439Z,41.33
2023-05-05T12:17:52.674Z,46.08
2023-05-05T12:23:00.834Z,53.35
2023-05-05T12:28:03.539Z,53.03
2023-05-05T12:33:08.499Z,41.80
2023-05-05T12:38:11.369Z,45.10
2023-05-05T12:43:35.409Z,39.10
2023-05-05T12:48:40.295Z,41.05
2023-05-05T12:53:43.286Z,33.67
2023-05-05T12:58:49.246Z,29.08
2023-05-05T13:04:15.470Z,32.50
2023-05-05T13:09:25.671Z,31.70
2023-05-05T13:14:28.321Z,28.80
2023-05-05T13:19:32.301Z,24.60
2023-05-05T13:24:46.612Z,25.25
2023-05-05T13:29:54.055Z,25.63
2023-05-05T13:34:58.094Z,20.98
2023-05-05T13:40:01.242Z,19.92
2023-05-05T13:45:04.263Z,21.35
2023-05-05T13:50:09.148Z,18.48
2023-05-05T13:55:11.848Z,58.40
2023-05-05T14:00:15.947Z,158.05
2023-05-05T14:05:20.179Z,130.40
2023-05-05T14:10:23.021Z,129.75
2023-05-05T14:15:25.685Z,56.47
2023-05-05T14:20:29.785Z,39.70
2023-05-05T14:25:32.460Z,35.15
2023-05-05T14:30:35.122Z,36.60
2023-05-05T14:35:39.123Z,30.92
2023-05-05T14:40:41.749Z,28.80
2023-05-05T14:45:45.128Z,19.73
2023-05-05T14:50:49.827Z,21.58
2023-05-05T14:55:52.560Z,23.33
2023-05-05T15:00:55.615Z,16.63
2023-05-05T15:17:00.925Z,28.88
2023-05-05T15:22:03.603Z,17.25
2023-05-05T15:27:06.388Z,18.35
2023-05-05T15:32:10.451Z,18.10
2023-05-05T15:37:13.142Z,21.58
2023-05-05T15:42:15.811Z,14.95
2023-05-05T15:47:19.775Z,15.65
2023-05-05T15:52:22.600Z,11.10
2023-05-05T15:57:25.294Z,11.02
2023-05-05T16:02:29.394Z,12.48
2023-05-05T16:07:32.082Z,10.18
2023-05-05T16:12:34.796Z,9.52
2023-05-05T16:17:38.768Z,9.55
2023-05-05T16:22:41.385Z,13.65
2023-05-05T16:27:44.047Z,13.98
2023-05-05T16:32:51.054Z,10.30
2023-05-05T16:37:53.734Z,9.23
2023-05-05T16:42:56.414Z,6.78
2023-05-05T16:48:00.475Z,8.32
2023-05-05T16:53:03.224Z,7.78
2023-05-05T16:58:05.866Z,6.53
2023-05-05T17:03:09.902Z,8.40
2023-05-05T17:08:14.100Z,7.20
2023-05-05T17:13:16.961Z,5.50
2023-05-05T17:18:22.664Z,6.32
2023-05-05T17:23:25.258Z,6.25
2023-05-05T17:28:27.857Z,5.32
2023-05-05T17:33:31.827Z,4.95
2023-05-05T17:38:34.513Z,7.55
2023-05-05T17:43:37.102Z,5.28
2023-05-05T17:48:41.216Z,5.07
2023-05-05T17:53:43.917Z,5.07
2023-05-05T17:58:46.523Z,5.68
2023-05-05T18:03:50.685Z,5.30
2023-05-05T18:08:53.719Z,4.28
2023-05-05T18:13:56.419Z,4.60
2023-05-05T18:19:00.390Z,5.95
2023-05-05T18:24:15.733Z,5.05
2023-05-05T18:29:22.945Z,3.95
2023-05-05T18:34:27.351Z,4.30
2023-05-05T18:39:30.234Z,5.90
2023-05-05T18:44:34.741Z,5.72
2023-05-05T18:49:38.915Z,4.75
2023-05-05T18:54:41.606Z,7.00
2023-05-05T18:59:44.559Z,4.97
2023-05-05T19:04:48.608Z,5.38
2023-05-05T19:09:51.385Z,5.80
2023-05-05T19:14:54.001Z,6.57
2023-05-05T19:19:57.993Z,5.55
2023-05-05T19:25:01.045Z,6.05
2023-05-05T19:30:04.050Z,5.03
2023-05-05T19:35:10.380Z,6.85
2023-05-05T19:40:13.952Z,6.85
2023-05-05T19:45:16.713Z,14.77
2023-05-05T19:50:21.254Z,23.27
2023-05-05T19:55:24.395Z,32.42
2023-05-05T20:00:27.264Z,34.85
2023-05-05T20:05:31.381Z,34.25
2023-05-05T20:10:34.066Z,35.72
2023-05-05T20:15:37.009Z,33.55
2023-05-05T20:20:41.084Z,31.08
2023-05-05T20:25:43.703Z,31.30
2023-05-05T20:30:46.354Z,27.85
2023-05-05T20:35:50.468Z,26.58
2023-05-05T20:40:53.109Z,24.85
2023-05-05T20:45:55.746Z,24.08
2023-05-05T20:50:59.843Z,22.55
2023-05-05T20:56:02.471Z,20.65
2023-05-05T21:01:05.261Z,20.17
2023-05-05T21:06:09.286Z,18.20
2023-05-05T21:11:11.946Z,16.95
2023-05-05T21:16:14.672Z,16.85
2023-05-05T21:21:18.761Z,15.80
2023-05-05T21:26:21.365Z,14.40
2023-05-05T21:31:23.990Z,14.43
2023-05-05T21:36:29.003Z,13.60
2023-05-05T21:41:31.642Z,14.02
2023-05-05T21:46:34.404Z,12.70
2023-05-05T21:51:38.376Z,11.43
2023-05-05T21:56:41.079Z,11.55
2023-05-05T22:01:43.853Z,12.10
2023-05-05T22:06:47.848Z,11.55
2023-05-05T22:11:52.208Z,12.15
2023-05-05T22:16:54.787Z,9.80
2023-05-05T22:21:59.520Z,9.05
2023-05-05T22:27:02.192Z,9.88
2023-05-05T22:32:04.828Z,9.45
2023-05-05T22:37:09.677Z,9.05
2023-05-05T22:42:12.347Z,9.05
2023-05-05T22:47:15.153Z,9.25
2023-05-05T22:52:19.369Z,8.27
2023-05-05T22:57:22.143Z,9.18
2023-05-05T23:02:26.382Z,8.23
2023-05-05T23:07:30.477Z,7.90
2023-05-05T23:12:33.151Z,8.68
2023-05-05T23:17:35.943Z,9.40
2023-05-05T23:22:40.089Z,8.40
2023-05-05T23:27:43.752Z,8.55
2023-05-05T23:32:46.640Z,8.02
2023-05-05T23:37:50.686Z,7.70
2023-05-05T23:42:53.301Z,6.85
2023-05-05T23:47:56.070Z,8.05
2023-05-05T23:53:00.066Z,8.25
2023-05-05T23:58:02.761Z,6.47
